Time,TemperatureF,DewpointF,PressureIn,WindDirection,WindDirectionDegrees,WindSpeedMPH,WindSpeedGustMPH,Humidity,HourlyPrecipIn,Conditions,Clouds,dailyrainin,SoftwareType,DateUTC
2013-06-01 00:01:00,72.0,40.0,29.68,NNE,33,0.0,2.0,31,0.00,,,0.00,,2013-06-01 07:01:00,
2013-06-01 00:11:00,72.0,40.0,29.68,NNE,33,0.0,2.0,31,0.00,,,0.00,,2013-06-01 07:11:00,
2013-06-01 00:21:00,72.0,40.0,29.67,NNE,33,0.0,0.0,31,0.00,,,0.00,,2013-06-01 07:21:00,
2013-06-01 00:31:00,73.0,40.0,29.67,NE,37,0.0,0.0,30,0.00,,,0.00,,2013-06-01 07:31:00,
2013-06-01 00:41:00,73.0,39.0,29.68,NE,37,0.0,1.0,29,0.00,,,0.00,,2013-06-01 07:41:00,
2013-06-01 00:52:00,73.0,39.0,29.68,NE,37,0.0,1.0,29,0.00,,,0.00,,2013-06-01 07:52:00,
2013-06-01 01:01:00,73.0,39.0,29.67,NE,37,0.0,2.0,29,0.00,,,0.00,,2013-06-01 08:01:00,
2013-06-01 01:11:00,72.0,39.0,29.68,NE,37,0.0,1.0,30,0.00,,,0.00,,2013-06-01 08:11:00,
2013-06-01 01:21:00,72.0,39.0,29.68,NE,37,0.0,1.0,30,0.00,,,0.00,,2013-06-01 08:21:00,
2013-06-01 01:32:00,72.0,39.0,29.68,NE,37,0.0,1.0,30,0.00,,,0.00,,2013-06-01 08:32:00,
2013-06-01 01:42:00,72.0,39.0,29.68,NE,37,0.0,2.0,30,0.00,,,0.00,,2013-06-01 08:42:00,
2013-06-01 01:52:00,72.0,39.0,29.68,NE,37,0.0,2.0,30,0.00,,,0.00,,2013-06-01 08:52:00,
2013-06-01 02:01:00,71.0,39.0,29.68,NE,37,1.0,2.0,31,0.00,,,0.00,,2013-06-01 09:01:00,
2013-06-01 02:12:00,71.0,39.0,29.68,NE,37,1.0,2.0,31,0.00,,,0.00,,2013-06-01 09:12:00,
2013-06-01 02:21:00,71.0,38.0,29.68,NE,37,1.0,3.0,30,0.00,,,0.00,,2013-06-01 09:21:00,
2013-06-01 02:32:00,70.0,39.0,29.68,NE,37,0.0,3.0,32,0.00,,,0.00,,2013-06-01 09:32:00,
2013-06-01 02:42:00,70.0,39.0,29.68,NE,37,0.0,3.0,32,0.00,,,0.00,,2013-06-01 09:42:00,
2013-06-01 02:53:00,68.0,38.0,29.68,NE,37,0.0,1.0,33,0.00,,,0.00,,2013-06-01 09:53:00,
2013-06-01 03:02:00,68.0,38.0,29.68,NE,37,0.0,2.0,33,0.00,,,0.00,,2013-06-01 10:02:00,
2013-06-01 03:12:00,68.0,38.0,29.68,NE,37,0.0,2.0,33,0.00,,,0.00,,2013-06-01 10:12:00,
2013-06-01 03:22:00,67.0,39.0,29.68,NE,37,0.0,2.0,36,0.00,,,0.00,,2013-06-01 10:22:00,
2013-06-01 03:32:00,66.0,38.0,29.68,NE,37,0.0,1.0,36,0.00,,,0.00,,2013-06-01 10:32:00,
2013-06-01 03:42:00,67.0,38.0,29.67,NE,37,0.0,1.0,35,0.00,,,0.00,,2013-06-01 10:42:00,
2013-06-01 03:52:00,67.0,38.0,29.67,NE,37,0.0,1.0,35,0.00,,,0.00,,2013-06-01 10:52:00,
2013-06-01 04:02:00,66.0,38.0,29.68,NE,37,0.0,1.0,36,0.00,,,0.00,,2013-06-01 11:02:00,
2013-06-01 04:11:00,66.0,38.0,29.68,NE,37,0.0,1.0,36,0.00,,,0.00,,2013-06-01 11:11:00,
2013-06-01 04:21:00,65.0,39.0,29.68,NE,37,0.0,0.0,38,0.00,,,0.00,,2013-06-01 11:21:00,
2013-06-01 04:32:00,64.0,38.0,29.68,NE,37,0.0,0.0,38,0.00,,,0.00,,2013-06-01 11:32:00,
2013-06-01 04:42:00,64.0,39.0,29.68,NE,37,0.0,0.0,39,0.00,,,0.00,,2013-06-01 11:42:00,
2013-06-01 04:52:00,64.0,39.0,29.68,NE,37,0.0,0.0,39,0.00,,,0.00,,2013-06-01 11:52:00,
2013-06-01 05:01:00,64.0,39.0,29.69,NE,37,0.0,0.0,40,0.00,,,0.00,,2013-06-01 12:01:00,
2013-06-01 05:11:00,64.0,39.0,29.69,NE,37,0.0,0.0,40,0.00,,,0.00,,2013-06-01 12:11:00,
2013-06-01 05:21:00,64.0,39.0,29.69,NE,37,0.0,0.0,40,0.00,,,0.00,,2013-06-01 12:21:00,
2013-06-01 05:32:00,62.0,39.0,29.69,NE,37,0.0,1.0,42,0.00,,,0.00,,2013-06-01 12:32:00,
2013-06-01 05:41:00,63.0,40.0,29.69,NE,37,0.0,0.0,43,0.00,,,0.00,,2013-06-01 12:41:00,
2013-06-01 05:52:00,63.0,40.0,29.69,NE,37,0.0,0.0,43,0.00,,,0.00,,2013-06-01 12:52:00,
2013-06-01 06:01:00,63.0,40.0,29.70,NE,37,0.0,1.0,43,0.00,,,0.00,,2013-06-01 13:01:00,
2013-06-01 06:11:00,63.0,40.0,29.70,NE,37,0.0,1.0,43,0.00,,,0.00,,2013-06-01 13:11:00,
2013-06-01 06:22:00,66.0,41.0,29.70,NE,37,0.0,1.0,40,0.00,,,0.00,,2013-06-01 13:22:00,
2013-06-01 06:32:00,68.0,43.0,29.71,NE,37,0.0,0.0,40,0.00,,,0.00,,2013-06-01 13:32:00,
2013-06-01 06:42:00,71.0,44.0,29.71,NE,37,0.0,0.0,38,0.00,,,0.00,,2013-06-01 13:42:00,
2013-06-01 06:52:00,71.0,44.0,29.71,NE,37,0.0,0.0,38,0.00,,,0.00,,2013-06-01 13:52:00,
2013-06-01 07:01:00,74.0,45.0,29.71,NE,37,0.0,0.0,35,0.00,,,0.00,,2013-06-01 14:01:00,
2013-06-01 07:11:00,74.0,45.0,29.71,NE,37,0.0,0.0,35,0.00,,,0.00,,2013-06-01 14:11:00,
2013-06-01 07:21:00,76.0,45.0,29.71,NE,37,0.0,0.0,33,0.00,,,0.00,,2013-06-01 14:21:00,
2013-06-01 07:32:00,78.0,44.0,29.71,NE,37,0.0,2.0,30,0.00,,,0.00,,2013-06-01 14:32:00,
2013-06-01 07:42:00,78.0,44.0,29.71,NE,37,0.0,2.0,30,0.00,,,0.00,,2013-06-01 14:42:00,
2013-06-01 07:52:00,80.0,44.0,29.71,NE,37,0.0,1.0,28,0.00,,,0.00,,2013-06-01 14:52:00,
2013-06-01 08:01:00,82.0,44.0,29.71,NNE,20,0.0,3.0,26,0.00,,,0.00,,2013-06-01 15:01:00,
2013-06-01 08:11:00,82.0,44.0,29.71,NNE,20,0.0,3.0,26,0.00,,,0.00,,2013-06-01 15:11:00,
2013-06-01 08:21:00,83.0,41.0,29.71,NW,326,0.0,3.0,23,0.00,,,0.00,,2013-06-01 15:21:00,
2013-06-01 08:33:00,85.0,43.0,29.71,WSW,249,0.0,3.0,23,0.00,,,0.00,,2013-06-01 15:33:00,
2013-06-01 08:42:00,85.0,43.0,29.71,WSW,249,0.0,3.0,23,0.00,,,0.00,,2013-06-01 15:42:00,
2013-06-01 08:53:00,86.0,43.0,29.71,WSW,248,0.0,2.0,22,0.00,,,0.00,,2013-06-01 15:53:00,
2013-06-01 09:03:00,86.0,41.0,29.71,WSW,254,1.0,3.0,21,0.00,,,0.00,,2013-06-01 16:03:00,
2013-06-01 09:12:00,86.0,41.0,29.71,WSW,254,1.0,3.0,21,0.00,,,0.00,,2013-06-01 16:12:00,
2013-06-01 09:23:00,88.0,42.0,29.70,WNW,297,1.0,4.0,20,0.00,,,0.00,,2013-06-01 16:23:00,
2013-06-01 09:33:00,90.0,43.0,29.70,WSW,247,2.0,6.0,20,0.00,,,0.00,,2013-06-01 16:33:00,
2013-06-01 09:42:00,91.0,43.0,29.69,NNW,338,1.0,6.0,19,0.00,,,0.00,,2013-06-01 16:42:00,
2013-06-01 09:52:00,91.0,43.0,29.69,NNW,338,1.0,6.0,19,0.00,,,0.00,,2013-06-01 16:52:00,
2013-06-01 10:02:00,92.0,42.0,29.69,WNW,294,1.0,4.0,18,0.00,,,0.00,,2013-06-01 17:02:00,
2013-06-01 10:11:00,92.0,42.0,29.69,WNW,294,1.0,4.0,18,0.00,,,0.00,,2013-06-01 17:11:00,
2013-06-01 10:21:00,94.0,43.0,29.68,WSW,247,2.0,5.0,17,0.00,,,0.00,,2013-06-01 17:21:00,
2013-06-01 10:32:00,94.0,43.0,29.68,WNW,284,1.0,7.0,17,0.00,,,0.00,,2013-06-01 17:32:00,
2013-06-01 10:42:00,94.0,43.0,29.68,WNW,284,1.0,7.0,17,0.00,,,0.00,,2013-06-01 17:42:00,
2013-06-01 10:52:00,95.0,42.0,29.68,SSW,213,3.0,7.0,16,0.00,,,0.00,,2013-06-01 17:52:00,
2013-06-01 11:01:00,96.0,43.0,29.68,SSW,198,4.0,9.0,16,0.00,,,0.00,,2013-06-01 18:01:00,
2013-06-01 11:11:00,96.0,43.0,29.68,SSW,198,4.0,9.0,16,0.00,,,0.00,,2013-06-01 18:11:00,
2013-06-01 11:21:00,98.0,42.0,29.67,WSW,245,3.0,9.0,15,0.00,,,0.00,,2013-06-01 18:21:00,
2013-06-01 11:32:00,98.0,42.0,29.67,SE,146,2.0,9.0,15,0.00,,,0.00,,2013-06-01 18:32:00,
2013-06-01 11:41:00,98.0,42.0,29.67,SE,146,2.0,9.0,15,0.00,,,0.00,,2013-06-01 18:41:00,
2013-06-01 11:51:00,97.0,43.0,29.66,ENE,70,1.0,5.0,16,0.00,,,0.00,,2013-06-01 18:51:00,
2013-06-01 12:01:00,100.0,44.0,29.65,South,182,1.0,6.0,15,0.00,,,0.00,,2013-06-01 19:01:00,
2013-06-01 12:11:00,101.0,45.0,29.65,South,169,2.0,7.0,15,0.00,,,0.00,,2013-06-01 19:11:00,
2013-06-01 12:21:00,101.0,45.0,29.65,South,169,2.0,7.0,15,0.00,,,0.00,,2013-06-01 19:21:00,
2013-06-01 12:32:00,99.0,41.0,29.64,NE,42,2.0,8.0,14,0.00,,,0.00,,2013-06-01 19:32:00,
2013-06-01 12:41:00,99.0,41.0,29.64,NE,42,2.0,8.0,14,0.00,,,0.00,,2013-06-01 19:41:00,
2013-06-01 12:52:00,101.0,41.0,29.64,SW,226,5.0,8.0,13,0.00,,,0.00,,2013-06-01 19:52:00,
2013-06-01 13:01:00,103.0,43.0,29.63,SW,218,4.0,10.0,13,0.00,,,0.00,,2013-06-01 20:01:00,
2013-06-01 13:11:00,103.0,43.0,29.63,SW,218,4.0,10.0,13,0.00,,,0.00,,2013-06-01 20:11:00,
2013-06-01 13:21:00,103.0,41.0,29.62,South,180,4.0,11.0,12,0.00,,,0.00,,2013-06-01 20:21:00,
2013-06-01 13:32:00,104.0,41.0,29.62,SSW,201,4.0,11.0,12,0.00,,,0.00,,2013-06-01 20:32:00,
2013-06-01 13:41:00,104.0,39.0,29.62,SW,229,5.0,10.0,11,0.00,,,0.00,,2013-06-01 20:41:00,
2013-06-01 13:52:00,104.0,39.0,29.62,SW,229,5.0,10.0,11,0.00,,,0.00,,2013-06-01 20:52:00,
2013-06-01 14:01:00,103.0,41.0,29.61,WNW,290,2.0,7.0,12,0.00,,,0.00,,2013-06-01 21:01:00,
2013-06-01 14:11:00,105.0,37.0,29.60,SW,226,5.0,12.0,10,0.00,,,0.00,,2013-06-01 21:11:00,
2013-06-01 14:21:00,105.0,37.0,29.60,SW,226,5.0,12.0,10,0.00,,,0.00,,2013-06-01 21:21:00,
2013-06-01 14:33:00,105.0,35.0,29.59,South,176,5.0,11.0,9,0.00,,,0.00,,2013-06-01 21:33:00,
2013-06-01 14:42:00,105.0,35.0,29.59,South,176,5.0,11.0,9,0.00,,,0.00,,2013-06-01 21:42:00,
2013-06-01 14:53:00,104.0,34.0,29.59,SSW,193,1.0,11.0,9,0.00,,,0.00,,2013-06-01 21:53:00,
2013-06-01 15:02:00,106.0,33.0,29.59,SSW,206,3.0,11.0,8,0.00,,,0.00,,2013-06-01 22:02:00,
2013-06-01 15:12:00,104.0,31.0,29.58,WSW,242,3.0,11.0,8,0.00,,,0.00,,2013-06-01 22:12:00,
2013-06-01 15:22:00,104.0,31.0,29.58,WSW,242,3.0,11.0,8,0.00,,,0.00,,2013-06-01 22:22:00,
2013-06-01 15:33:00,105.0,29.0,29.58,WSW,253,5.0,9.0,7,0.00,,,0.00,,2013-06-01 22:33:00,
2013-06-01 15:42:00,105.0,32.0,29.57,West,274,4.0,10.0,8,0.00,,,0.00,,2013-06-01 22:42:00,
2013-06-01 16:01:00,104.0,28.0,29.57,WNW,296,2.0,8.0,7,0.00,,,0.00,,2013-06-01 23:01:00,
2013-06-01 16:11:00,106.0,25.0,29.56,SW,232,4.0,9.0,6,0.00,,,0.00,,2013-06-01 23:11:00,
2013-06-01 16:21:00,106.0,25.0,29.56,SW,232,4.0,9.0,6,0.00,,,0.00,,2013-06-01 23:21:00,
2013-06-01 16:32:00,105.0,25.0,29.56,West,279,2.0,9.0,6,0.00,,,0.00,,2013-06-01 23:32:00,
2013-06-01 16:42:00,105.0,25.0,29.56,West,279,2.0,9.0,6,0.00,,,0.00,,2013-06-01 23:42:00,
2013-06-01 16:52:00,105.0,25.0,29.55,West,263,3.0,8.0,6,0.00,,,0.00,,2013-06-01 23:52:00,
2013-06-01 17:01:00,104.0,28.0,29.55,SW,228,2.0,8.0,7,0.00,,,0.00,,2013-06-02 00:01:00,
2013-06-01 17:11:00,104.0,28.0,29.55,SW,228,2.0,8.0,7,0.00,,,0.00,,2013-06-02 00:11:00,
2013-06-01 17:21:00,105.0,25.0,29.55,WSW,250,4.0,10.0,6,0.00,,,0.00,,2013-06-02 00:21:00,
2013-06-01 17:31:00,104.0,28.0,29.55,WSW,249,5.0,11.0,7,0.00,,,0.00,,2013-06-02 00:31:00,
2013-06-01 17:41:00,104.0,28.0,29.55,WSW,249,5.0,11.0,7,0.00,,,0.00,,2013-06-02 00:41:00,
2013-06-01 17:52:00,103.0,30.0,29.55,WNW,288,4.0,11.0,8,0.00,,,0.00,,2013-06-02 00:52:00,
2013-06-01 18:01:00,103.0,30.0,29.54,WSW,251,4.0,10.0,8,0.00,,,0.00,,2013-06-02 01:01:00,
2013-06-01 18:11:00,103.0,30.0,29.54,WSW,251,4.0,10.0,8,0.00,,,0.00,,2013-06-02 01:11:00,
2013-06-01 18:21:00,103.0,27.0,29.54,West,280,2.0,10.0,7,0.00,,,0.00,,2013-06-02 01:21:00,
2013-06-01 18:32:00,102.0,30.0,29.54,West,266,4.0,7.0,8,0.00,,,0.00,,2013-06-02 01:32:00,
2013-06-01 18:41:00,101.0,32.0,29.55,WNW,284,1.0,5.0,9,0.00,,,0.00,,2013-06-02 01:41:00,
2013-06-01 18:52:00,101.0,32.0,29.55,WNW,284,1.0,5.0,9,0.00,,,0.00,,2013-06-02 01:52:00,
2013-06-01 19:01:00,100.0,31.0,29.55,West,275,1.0,5.0,9,0.00,,,0.00,,2013-06-02 02:01:00,
2013-06-01 19:12:00,100.0,31.0,29.55,West,275,1.0,5.0,9,0.00,,,0.00,,2013-06-02 02:12:00,
2013-06-01 19:21:00,98.0,32.0,29.55,WNW,290,2.0,5.0,10,0.00,,,0.00,,2013-06-02 02:21:00,
2013-06-01 19:32:00,96.0,33.0,29.55,WNW,295,1.0,4.0,11,0.00,,,0.00,,2013-06-02 02:32:00,
2013-06-01 19:41:00,96.0,33.0,29.55,WNW,295,1.0,4.0,11,0.00,,,0.00,,2013-06-02 02:41:00,
2013-06-01 19:52:00,95.0,32.0,29.56,WNW,286,3.0,7.0,11,0.00,,,0.00,,2013-06-02 02:52:00,
2013-06-01 20:01:00,94.0,34.0,29.56,WNW,287,2.0,5.0,12,0.00,,,0.00,,2013-06-02 03:01:00,
2013-06-01 20:11:00,94.0,34.0,29.56,WNW,287,2.0,5.0,12,0.00,,,0.00,,2013-06-02 03:11:00,
2013-06-01 20:21:00,92.0,34.0,29.56,WNW,285,1.0,4.0,13,0.00,,,0.00,,2013-06-02 03:21:00,
2013-06-01 20:33:00,90.0,34.0,29.57,WNW,287,0.0,2.0,14,0.00,,,0.00,,2013-06-02 03:33:00,
2013-06-01 20:43:00,90.0,34.0,29.57,WNW,287,0.0,2.0,14,0.00,,,0.00,,2013-06-02 03:43:00,
2013-06-01 20:53:00,91.0,37.0,29.57,WNW,285,1.0,5.0,15,0.00,,,0.00,,2013-06-02 03:53:00,
2013-06-01 21:02:00,89.0,37.0,29.57,West,273,1.0,3.0,16,0.00,,,0.00,,2013-06-02 04:02:00,
2013-06-01 21:12:00,89.0,37.0,29.57,West,273,1.0,3.0,16,0.00,,,0.00,,2013-06-02 04:12:00,
2013-06-01 21:23:00,88.0,38.0,29.58,West,268,1.0,4.0,17,0.00,,,0.00,,2013-06-02 04:23:00,
2013-06-01 21:32:00,87.0,38.0,29.59,West,263,1.0,4.0,18,0.00,,,0.00,,2013-06-02 04:32:00,
2013-06-01 21:42:00,87.0,38.0,29.59,West,263,1.0,4.0,18,0.00,,,0.00,,2013-06-02 04:42:00,
2013-06-01 21:53:00,86.0,39.0,29.59,WNW,302,0.0,1.0,19,0.00,,,0.00,,2013-06-02 04:53:00,
2013-06-01 22:02:00,86.0,38.0,29.60,NE,51,1.0,3.0,18,0.00,,,0.00,,2013-06-02 05:02:00,
2013-06-01 22:11:00,86.0,38.0,29.60,NE,51,1.0,3.0,18,0.00,,,0.00,,2013-06-02 05:11:00,
2013-06-01 22:22:00,86.0,38.0,29.61,NE,52,0.0,0.0,18,0.00,,,0.00,,2013-06-02 05:22:00,
2013-06-01 22:32:00,84.0,37.0,29.61,ENE,64,1.0,3.0,19,0.00,,,0.00,,2013-06-02 05:32:00,
2013-06-01 22:42:00,84.0,37.0,29.61,ENE,64,1.0,3.0,19,0.00,,,0.00,,2013-06-02 05:42:00,
2013-06-01 22:52:00,84.0,36.0,29.61,ENE,66,0.0,2.0,18,0.00,,,0.00,,2013-06-02 05:52:00,
2013-06-01 23:01:00,83.0,36.0,29.62,ENE,66,0.0,1.0,19,0.00,,,0.00,,2013-06-02 06:01:00,
2013-06-01 23:12:00,81.0,37.0,29.62,South,187,0.0,1.0,21,0.00,,,0.00,,2013-06-02 06:12:00,
2013-06-01 23:21:00,81.0,37.0,29.62,South,187,0.0,1.0,21,0.00,,,0.00,,2013-06-02 06:21:00,
2013-06-01 23:31:00,81.0,37.0,29.62,ESE,105,1.0,4.0,21,0.00,,,0.00,,2013-06-02 06:31:00,
2013-06-01 23:41:00,81.0,37.0,29.62,ESE,105,1.0,4.0,21,0.00,,,0.00,,2013-06-02 06:41:00,
2013-06-01 23:52:00,81.0,36.0,29.62,ESE,109,0.0,3.0,20,0.00,,,0.00,,2013-06-02 06:52:00,